Time;durP1;ratioP1;P1;durP2;ratioP2;P2;SDS_P1;SDS_P2;PMS_P1;PMS_P2;Temp;Humidity;BMP_temperature;BMP_pressure;BME280_temperature;BME280_humidity;BME280_pressure;Samples;Min_cycle;Max_cycle;Signal;HPM_P1;HPM_P2
2022/05/26 00:00:57;;;;;;;1.00;1.00;;;13.60;99.90;;;;;;488640;243;28099;-71
2022/05/26 00:02:58;;;;;;;1.20;1.10;;;13.50;99.90;;;;;;488644;243;28302;-72
2022/05/26 00:04:59;;;;;;;1.20;1.20;;;13.50;99.90;;;;;;488614;243;28306;-71
2022/05/26 00:07:01;;;;;;;1.10;1.10;;;13.50;99.90;;;;;;488666;243;28456;-74
2022/05/26 00:09:02;;;;;;;0.97;0.97;;;13.50;99.90;;;;;;488620;243;28232;-72
2022/05/26 00:11:03;;;;;;;1.00;1.00;;;13.40;99.90;;;;;;488533;243;28081;-72
2022/05/26 00:13:05;;;;;;;1.17;1.17;;;13.40;99.90;;;;;;488620;243;28841;-72
2022/05/26 00:15:06;;;;;;;1.00;1.00;;;13.40;99.90;;;;;;488583;243;28807;-71
2022/05/26 00:17:07;;;;;;;1.00;1.00;;;13.40;99.90;;;;;;488138;243;28784;-73
2022/05/26 00:19:08;;;;;;;1.23;1.20;;;13.30;99.90;;;;;;488645;243;28742;-71
2022/05/26 00:21:09;;;;;;;1.10;1.10;;;13.30;99.90;;;;;;488622;243;28160;-72
2022/05/26 00:23:11;;;;;;;1.23;1.13;;;13.30;99.90;;;;;;488626;243;28182;-72
2022/05/26 00:25:12;;;;;;;1.20;1.20;;;13.30;99.90;;;;;;488613;243;28186;-72
2022/05/26 00:27:13;;;;;;;1.10;1.10;;;13.30;99.90;;;;;;488640;243;28084;-71
2022/05/26 00:29:14;;;;;;;1.37;1.00;;;13.30;99.90;;;;;;488614;243;28174;-71
2022/05/26 00:31:16;;;;;;;1.03;1.03;;;13.30;99.90;;;;;;488628;243;28104;-72
2022/05/26 00:33:17;;;;;;;4.63;1.17;;;13.30;99.90;;;;;;488621;243;28136;-71
2022/05/26 00:35:18;;;;;;;1.53;1.13;;;13.30;99.90;;;;;;488606;243;28172;-72
2022/05/26 00:37:19;;;;;;;1.00;1.00;;;13.30;99.90;;;;;;488622;243;28652;-71
2022/05/26 00:39:22;;;;;;;1.00;1.00;;;13.30;99.90;;;;;;488640;243;28532;-71
2022/05/26 00:41:22;;;;;;;1.13;1.03;;;13.30;99.90;;;;;;488547;243;28677;-72
2022/05/26 00:43:23;;;;;;;1.20;1.10;;;13.30;99.90;;;;;;488626;243;28716;-71
2022/05/26 00:45:24;;;;;;;1.00;1.00;;;13.20;99.90;;;;;;488601;243;28118;-72
2022/05/26 00:47:27;;;;;;;1.00;1.00;;;13.30;99.90;;;;;;488618;243;28164;-73
2022/05/26 00:49:27;;;;;;;1.27;0.97;;;13.30;99.90;;;;;;488579;243;28183;-71
2022/05/26 00:51:28;;;;;;;1.20;1.10;;;13.30;99.90;;;;;;488398;243;28217;-73
2022/05/26 00:53:29;;;;;;;1.10;1.10;;;13.30;99.90;;;;;;488634;243;28084;-72
2022/05/26 00:55:31;;;;;;;1.10;1.10;;;13.30;99.90;;;;;;488617;243;28413;-71
2022/05/26 00:57:32;;;;;;;1.10;1.00;;;13.30;99.90;;;;;;488653;243;28139;-71
2022/05/26 00:59:33;;;;;;;0.93;0.93;;;13.30;99.90;;;;;;488614;243;28132;-72
2022/05/26 01:01:36;;;;;;;1.87;1.03;;;13.30;99.90;;;;;;488631;243;28254;-73
2022/05/26 01:03:36;;;;;;;1.00;1.00;;;13.30;99.90;;;;;;488548;243;28618;-71
2022/05/26 01:05:37;;;;;;;0.90;0.90;;;13.20;99.90;;;;;;488631;243;28595;-72
2022/05/26 01:07:38;;;;;;;1.03;1.03;;;13.20;99.90;;;;;;488647;243;30957;-71
2022/05/26 01:09:39;;;;;;;1.00;1.00;;;13.30;99.90;;;;;;488450;243;28186;-71
2022/05/26 01:11:41;;;;;;;1.10;1.10;;;13.20;99.90;;;;;;488661;243;28126;-72
2022/05/26 01:13:42;;;;;;;1.00;1.00;;;13.20;99.90;;;;;;488642;243;28133;-72
2022/05/26 01:15:43;;;;;;;1.00;1.00;;;13.20;99.90;;;;;;488628;243;28737;-71
2022/05/26 01:17:44;;;;;;;1.30;1.20;;;13.20;99.90;;;;;;488623;243;28109;-71
2022/05/26 01:19:46;;;;;;;1.00;1.00;;;13.20;99.90;;;;;;488607;243;28177;-71
2022/05/26 01:21:47;;;;;;;4.77;1.10;;;13.20;99.90;;;;;;488637;243;28088;-73
2022/05/26 01:23:48;;;;;;;1.10;1.10;;;13.20;99.90;;;;;;488613;243;28605;-72
2022/05/26 01:25:51;;;;;;;2.40;1.23;;;;;;;;;;488630;243;28588;-71
2022/05/26 01:27:52;;;;;;;1.17;1.17;;;13.20;99.90;;;;;;488611;242;26535;-71
2022/05/26 01:29:53;;;;;;;2.50;1.00;;;13.30;99.90;;;;;;488659;243;28125;-74
2022/05/26 01:31:54;;;;;;;1.00;1.00;;;13.30;99.90;;;;;;488639;243;28528;-71
2022/05/26 01:33:56;;;;;;;1.00;1.00;;;13.30;99.90;;;;;;488631;243;28171;-72
2022/05/26 01:35:57;;;;;;;1.50;1.40;;;13.20;99.90;;;;;;488595;243;28489;-71
2022/05/26 01:37:58;;;;;;;1.10;1.00;;;13.20;99.90;;;;;;488633;242;28707;-71
2022/05/26 01:39:59;;;;;;;1.10;1.10;;;13.20;99.90;;;;;;488628;243;28582;-74
2022/05/26 01:42:01;;;;;;;1.00;1.00;;;13.20;99.90;;;;;;488632;243;28626;-72
2022/05/26 01:44:02;;;;;;;0.90;0.90;;;13.20;99.90;;;;;;488605;243;28292;-73
2022/05/26 01:46:03;;;;;;;0.90;0.90;;;13.20;99.90;;;;;;488625;243;28248;-71
2022/05/26 01:48:04;;;;;;;1.00;1.00;;;13.20;99.90;;;;;;488605;243;28205;-71
2022/05/26 01:50:06;;;;;;;1.00;1.00;;;13.20;99.90;;;;;;488625;243;28053;-74
2022/05/26 01:52:07;;;;;;;1.20;1.10;;;13.10;99.90;;;;;;488605;243;28060;-71
2022/05/26 01:54:08;;;;;;;1.10;1.10;;;12.90;99.90;;;;;;488603;243;28745;-72
2022/05/26 01:56:09;;;;;;;1.00;1.00;;;12.90;99.90;;;;;;488615;243;28197;-71
2022/05/26 01:58:11;;;;;;;1.20;1.10;;;12.90;99.90;;;;;;488627;243;28172;-71
2022/05/26 02:00:12;;;;;;;1.00;1.00;;;12.90;99.90;;;;;;488649;243;28779;-73
2022/05/26 02:02:13;;;;;;;1.00;1.00;;;13.00;99.90;;;;;;488627;243;28560;-71
2022/05/26 02:04:14;;;;;;;1.20;1.10;;;13.00;99.90;;;;;;488611;243;29058;-72
2022/05/26 02:06:16;;;;;;;1.03;1.00;;;13.00;99.90;;;;;;488615;243;29166;-71
2022/05/26 02:08:17;;;;;;;1.17;1.10;;;12.90;99.90;;;;;;488615;243;28057;-72
2022/05/26 02:10:18;;;;;;;1.17;1.17;;;12.90;99.90;;;;;;488630;243;27965;-72
2022/05/26 02:12:19;;;;;;;1.00;1.00;;;12.90;99.90;;;;;;488613;243;28217;-71
2022/05/26 02:14:21;;;;;;;2.60;1.20;;;12.80;99.90;;;;;;488624;243;28197;-72
2022/05/26 02:16:22;;;;;;;2.80;2.07;;;12.70;99.90;;;;;;488600;243;27943;-71
2022/05/26 02:18:23;;;;;;;1.00;1.00;;;12.70;99.90;;;;;;488618;243;28791;-71
2022/05/26 02:20:26;;;;;;;1.23;1.13;;;12.70;99.90;;;;;;488615;243;28739;-72
2022/05/26 02:22:26;;;;;;;1.00;1.00;;;12.70;99.90;;;;;;488552;243;28678;-72
2022/05/26 02:24:27;;;;;;;1.10;1.10;;;12.80;99.90;;;;;;488649;243;28717;-71
2022/05/26 02:26:28;;;;;;;1.13;1.10;;;12.80;99.90;;;;;;488614;243;28612;-71
2022/05/26 02:29:50;;;;;;;1.03;1.03;;;12.80;99.90;;;;;;488635;243;29221;-72
2022/05/26 02:30:31;;;;;;;1.00;1.00;;;12.80;99.90;;;;;;487135;243;28180;-72
2022/05/26 02:32:32;;;;;;;1.00;1.00;;;12.80;99.90;;;;;;488626;243;28246;-76
2022/05/26 02:34:33;;;;;;;1.00;1.00;;;12.90;99.90;;;;;;488621;243;28210;-72
2022/05/26 02:36:35;;;;;;;1.10;1.10;;;12.80;99.90;;;;;;488608;243;28504;-71
2022/05/26 02:38:36;;;;;;;1.10;1.00;;;12.80;99.90;;;;;;488618;243;28237;-72
2022/05/26 02:40:37;;;;;;;1.00;1.00;;;12.80;99.90;;;;;;488634;243;28766;-73
2022/05/26 02:42:38;;;;;;;1.13;1.13;;;12.70;99.90;;;;;;488603;243;28266;-71
2022/05/26 02:44:39;;;;;;;1.10;1.10;;;12.60;99.90;;;;;;488609;243;28230;-72
2022/05/26 02:46:42;;;;;;;1.00;1.00;;;12.60;99.90;;;;;;488607;243;28937;-71
2022/05/26 02:48:42;;;;;;;1.00;1.00;;;12.60;99.90;;;;;;488571;243;28595;-71
2022/05/26 02:50:43;;;;;;;1.17;1.17;;;12.50;99.90;;;;;;488606;243;28680;-72
2022/05/26 02:52:44;;;;;;;0.90;0.90;;;12.50;99.90;;;;;;488605;243;28577;-71
2022/05/26 02:54:46;;;;;;;1.10;1.10;;;12.50;99.90;;;;;;488611;243;28241;-72
2022/05/26 02:56:47;;;;;;;1.00;1.00;;;12.50;99.90;;;;;;488572;243;28413;-71
2022/05/26 02:58:48;;;;;;;1.30;1.20;;;12.60;99.90;;;;;;488625;243;28161;-71
2022/05/26 03:00:49;;;;;;;1.43;1.33;;;12.60;99.90;;;;;;488615;243;27945;-72
2022/05/26 03:02:51;;;;;;;2.50;1.03;;;12.50;99.90;;;;;;488604;243;28014;-71
2022/05/26 03:04:52;;;;;;;1.10;1.10;;;12.50;99.90;;;;;;488592;243;28496;-71
2022/05/26 03:06:54;;;;;;;5.00;1.67;;;12.60;99.90;;;;;;488584;243;28437;-73
2022/05/26 03:08:54;;;;;;;1.10;1.10;;;12.60;99.90;;;;;;488582;243;29088;-71
2022/05/26 03:10:56;;;;;;;1.13;1.13;;;12.60;99.90;;;;;;488524;243;28759;-72
2022/05/26 03:12:59;;;;;;;1.30;1.20;;;12.60;99.90;;;;;;488556;243;29228;-71
2022/05/26 03:14:58;;;;;;;1.10;1.10;;;12.60;99.90;;;;;;488414;243;28675;-71
2022/05/26 03:16:59;;;;;;;1.10;1.10;;;12.70;99.90;;;;;;488588;243;28832;-73
2022/05/26 03:19:01;;;;;;;2.83;1.17;;;12.70;99.90;;;;;;488587;243;27917;-71
2022/05/26 03:21:02;;;;;;;1.10;1.10;;;12.70;99.90;;;;;;488568;243;28290;-72
2022/05/26 03:23:03;;;;;;;1.00;1.00;;;12.70;99.90;;;;;;488585;243;28188;-71
2022/05/26 03:25:04;;;;;;;1.00;1.00;;;12.80;99.90;;;;;;488589;243;28245;-72
2022/05/26 03:27:06;;;;;;;1.73;1.10;;;12.80;99.90;;;;;;488640;243;27951;-72
2022/05/26 03:29:07;;;;;;;1.37;1.23;;;12.80;99.90;;;;;;488631;243;28255;-71
2022/05/26 03:31:08;;;;;;;1.00;1.00;;;12.80;99.90;;;;;;488606;243;28302;-72
2022/05/26 03:33:09;;;;;;;1.20;1.20;;;12.80;99.90;;;;;;488584;243;28679;-72
2022/05/26 03:42:09;;;;;;;1.17;1.17;;;12.80;99.90;;;;;;488606;243;28407;-72
2022/05/26 03:44:10;;;;;;;1.07;1.07;;;12.70;99.90;;;;;;488631;243;28083;-75
2022/05/26 03:46:12;;;;;;;1.30;1.20;;;12.70;99.90;;;;;;488630;243;28141;-72
2022/05/26 03:48:13;;;;;;;1.40;1.30;;;12.70;99.90;;;;;;488635;243;28524;-72
2022/05/26 03:50:14;;;;;;;1.07;1.00;;;12.70;99.90;;;;;;488626;243;28665;-71
2022/05/26 03:52:15;;;;;;;1.10;1.10;;;12.70;99.90;;;;;;488572;243;28397;-71
2022/05/26 03:54:17;;;;;;;1.30;1.20;;;12.80;99.90;;;;;;488592;243;28950;-73
2022/05/26 03:56:18;;;;;;;1.03;1.03;;;12.80;99.90;;;;;;488585;243;28964;-71
2022/05/26 03:58:19;;;;;;;1.10;1.10;;;12.80;99.90;;;;;;488603;243;28751;-72
2022/05/26 04:00:21;;;;;;;1.13;1.00;;;12.80;99.90;;;;;;488587;243;28309;-71
2022/05/26 04:02:22;;;;;;;1.07;1.07;;;12.80;99.90;;;;;;488597;243;28739;-73
2022/05/26 04:04:23;;;;;;;1.53;1.20;;;12.80;99.90;;;;;;488637;243;28717;-73
2022/05/26 04:06:25;;;;;;;1.17;1.10;;;12.90;99.90;;;;;;488634;243;28264;-72
2022/05/26 04:08:25;;;;;;;1.43;1.20;;;13.00;99.90;;;;;;488550;243;28132;-72
2022/05/26 04:10:27;;;;;;;1.20;1.20;;;13.00;99.90;;;;;;488608;243;27987;-71
2022/05/26 04:12:28;;;;;;;1.70;1.27;;;13.10;99.90;;;;;;488594;243;28291;-72
2022/05/26 04:14:30;;;;;;;1.90;1.20;;;;;;;;;;488622;243;28421;-72
2022/05/26 04:16:32;;;;;;;1.17;1.10;;;13.20;99.90;;;;;;488616;242;26577;-72
2022/05/26 04:18:33;;;;;;;1.00;1.00;;;13.20;99.90;;;;;;488598;243;28198;-71
2022/05/26 04:20:34;;;;;;;1.07;1.07;;;13.20;99.90;;;;;;488601;243;28714;-72
2022/05/26 04:22:37;;;;;;;1.33;1.10;;;;;;;;;;488617;243;28838;-72
2022/05/26 04:24:38;;;;;;;1.00;1.00;;;13.10;99.90;;;;;;488605;242;27231;-72
2022/05/26 04:26:39;;;;;;;1.10;1.10;;;13.10;99.90;;;;;;488584;243;27992;-71
2022/05/26 04:28:40;;;;;;;1.50;1.40;;;13.10;99.90;;;;;;488634;243;28067;-71
2022/05/26 04:30:42;;;;;;;1.20;1.10;;;13.00;99.90;;;;;;488651;243;28085;-72
2022/05/26 04:32:43;;;;;;;1.67;1.20;;;13.00;99.90;;;;;;488639;243;28156;-71
2022/05/26 04:34:48;;;;;;;1.10;1.10;;;13.00;99.90;;;;;;488614;243;28229;-72
2022/05/26 04:36:45;;;;;;;1.17;1.10;;;13.00;99.90;;;;;;488324;243;28245;-72
2022/05/26 04:38:47;;;;;;;1.10;1.10;;;13.00;99.90;;;;;;488549;243;28330;-72
2022/05/26 04:40:48;;;;;;;1.20;1.00;;;13.00;99.90;;;;;;488601;243;28096;-73
2022/05/26 04:42:49;;;;;;;1.13;1.10;;;13.20;99.90;;;;;;488575;243;28179;-71
2022/05/26 04:44:50;;;;;;;1.30;1.20;;;13.20;99.90;;;;;;488620;243;28700;-72
2022/05/26 04:46:52;;;;;;;1.13;1.03;;;13.20;99.90;;;;;;488634;243;29406;-72
2022/05/26 04:48:53;;;;;;;1.07;1.07;;;13.20;99.90;;;;;;488639;243;29226;-71
2022/05/26 04:50:54;;;;;;;1.40;1.30;;;13.10;99.90;;;;;;488576;243;28082;-73
2022/05/26 04:52:55;;;;;;;1.10;1.10;;;13.20;99.90;;;;;;488607;243;28089;-71
2022/05/26 04:54:58;;;;;;;1.50;1.40;;;;;;;;;;488577;243;28301;-71
2022/05/26 04:56:59;;;;;;;1.07;1.07;;;13.40;99.90;;;;;;488609;243;27103;-72
2022/05/26 04:59:00;;;;;;;1.60;1.10;;;13.50;99.90;;;;;;488621;243;28710;-73
2022/05/26 05:01:01;;;;;;;1.30;1.20;;;13.60;99.90;;;;;;488621;243;28615;-71
2022/05/26 05:03:03;;;;;;;1.17;1.17;;;13.50;99.90;;;;;;488618;243;28777;-72
2022/05/26 05:05:04;;;;;;;1.30;1.20;;;13.50;99.90;;;;;;488623;243;28370;-71
2022/05/26 05:07:05;;;;;;;1.10;1.10;;;13.40;99.90;;;;;;488627;243;28171;-71
2022/05/26 05:09:07;;;;;;;1.27;1.27;;;13.40;99.90;;;;;;488603;243;28119;-74
2022/05/26 05:11:08;;;;;;;1.90;1.80;;;13.30;99.90;;;;;;488628;243;28083;-72
2022/05/26 05:13:10;;;;;;;1.40;1.40;;;13.30;99.90;;;;;;488623;243;28178;-73
2022/05/26 05:15:10;;;;;;;1.60;1.50;;;13.30;99.90;;;;;;488608;243;28577;-72
2022/05/26 05:17:12;;;;;;;2.40;1.50;;;13.30;99.90;;;;;;488605;243;28092;-71
2022/05/26 05:19:13;;;;;;;1.33;1.30;;;13.30;99.90;;;;;;488638;243;28222;-74
2022/05/26 05:21:14;;;;;;;1.20;1.20;;;13.40;99.90;;;;;;488609;243;28643;-71
2022/05/26 05:23:15;;;;;;;1.33;1.23;;;13.40;99.90;;;;;;488603;243;28611;-72
2022/05/26 05:25:17;;;;;;;1.50;1.40;;;13.50;99.90;;;;;;488627;243;28706;-71
2022/05/26 05:27:18;;;;;;;2.10;1.50;;;13.70;99.90;;;;;;488611;243;28770;-72
2022/05/26 05:29:19;;;;;;;1.20;1.20;;;13.90;99.90;;;;;;488645;243;28305;-73
2022/05/26 05:31:20;;;;;;;1.67;1.53;;;14.00;99.90;;;;;;488653;243;28135;-71
2022/05/26 05:33:22;;;;;;;2.10;1.40;;;14.00;99.90;;;;;;488656;243;28253;-72
2022/05/26 05:35:23;;;;;;;1.57;1.37;;;14.20;99.90;;;;;;488634;243;28335;-71
2022/05/26 05:37:24;;;;;;;1.40;1.40;;;14.20;99.90;;;;;;488606;243;28229;-72
2022/05/26 05:39:25;;;;;;;1.60;1.50;;;14.30;99.90;;;;;;488627;243;28424;-74
2022/05/26 05:41:27;;;;;;;1.30;1.20;;;14.30;99.90;;;;;;488661;243;28357;-71
2022/05/26 05:43:28;;;;;;;1.53;1.43;;;14.20;99.90;;;;;;488639;243;28185;-72
2022/05/26 05:45:29;;;;;;;1.30;1.30;;;14.20;99.90;;;;;;488617;243;29013;-72
2022/05/26 05:47:30;;;;;;;1.57;1.40;;;14.30;99.90;;;;;;488600;243;29185;-72
2022/05/26 05:49:32;;;;;;;1.73;1.33;;;14.40;99.90;;;;;;488614;243;29296;-75
2022/05/26 05:51:35;;;;;;;1.87;1.60;;;14.30;99.90;;;;;;488625;243;29118;-71
2022/05/26 05:53:34;;;;;;;1.60;1.50;;;14.30;99.90;;;;;;488452;243;28423;-71
2022/05/26 05:55:35;;;;;;;1.50;1.40;;;14.40;99.90;;;;;;488604;243;28718;-72
2022/05/26 05:57:37;;;;;;;1.30;1.30;;;14.40;99.90;;;;;;488587;243;28410;-72
2022/05/26 05:59:38;;;;;;;1.50;1.40;;;14.50;99.90;;;;;;488638;243;28423;-74
2022/05/26 06:01:39;;;;;;;1.63;1.53;;;14.50;99.90;;;;;;488625;243;28684;-71
2022/05/26 06:03:40;;;;;;;1.43;1.33;;;14.40;99.90;;;;;;488588;243;28715;-72
2022/05/26 06:05:42;;;;;;;1.40;1.30;;;14.40;99.90;;;;;;488601;243;28763;-71
2022/05/26 06:07:43;;;;;;;1.60;1.50;;;14.50;99.90;;;;;;488584;243;28796;-72
2022/05/26 06:09:44;;;;;;;2.13;1.70;;;14.50;99.90;;;;;;488625;243;29200;-74
2022/05/26 06:11:45;;;;;;;1.47;1.37;;;14.50;99.90;;;;;;488594;243;29290;-71
2022/05/26 06:13:47;;;;;;;1.50;1.40;;;14.60;99.90;;;;;;488613;243;29219;-72
2022/05/26 06:15:48;;;;;;;1.60;1.50;;;14.70;99.90;;;;;;488582;243;29239;-72
2022/05/26 06:17:49;;;;;;;3.23;1.67;;;14.70;99.90;;;;;;488619;243;28800;-72
2022/05/26 06:19:51;;;;;;;1.33;1.23;;;14.70;99.90;;;;;;488627;243;28400;-74
2022/05/26 06:21:52;;;;;;;1.50;1.40;;;14.70;99.90;;;;;;488610;243;28745;-72
2022/05/26 06:23:55;;;;;;;1.50;1.40;;;14.80;99.90;;;;;;488598;243;28733;-72
2022/05/26 06:25:54;;;;;;;1.50;1.40;;;14.90;99.90;;;;;;488447;243;28674;-72
2022/05/26 06:30:15;;;;;;;1.47;1.37;;;15.00;99.90;;;;;;488606;243;28776;-72
2022/05/26 06:37:14;;;;;;;1.63;1.40;;;15.10;99.90;;;;;;488569;243;28788;-72
2022/05/26 06:39:15;;;;;;;1.90;1.30;;;15.10;99.90;;;;;;488624;243;29056;-74
2022/05/26 06:43:36;;;;;;;2.40;1.20;;;14.90;99.90;;;;;;488571;243;28782;-73
2022/05/26 06:45:38;;;;;;;1.73;1.57;;;14.90;99.90;;;;;;488530;243;28713;-72
2022/05/26 06:47:38;;;;;;;3.10;1.63;;;15.10;99.90;;;;;;488600;243;28689;-72
2022/05/26 06:49:39;;;;;;;1.20;1.20;;;15.10;99.90;;;;;;488586;243;29255;-73
2022/05/26 06:51:43;;;;;;;1.60;1.40;;;15.00;99.90;;;;;;488562;243;29207;-72
2022/05/26 06:53:42;;;;;;;1.63;1.53;;;14.90;99.90;;;;;;488462;243;29215;-72
2022/05/26 06:55:43;;;;;;;1.83;1.73;;;14.90;99.90;;;;;;488626;243;29907;-72
2022/05/26 06:57:44;;;;;;;2.50;1.70;;;14.90;99.90;;;;;;488621;243;28701;-72
2022/05/26 06:59:46;;;;;;;2.43;1.73;;;15.00;99.90;;;;;;488613;243;28714;-74
2022/05/26 07:01:47;;;;;;;1.37;1.27;;;15.10;99.90;;;;;;488610;243;28708;-72
2022/05/26 07:03:48;;;;;;;2.00;1.40;;;15.20;99.90;;;;;;488583;243;28736;-72
2022/05/26 07:05:50;;;;;;;1.30;1.23;;;15.30;99.90;;;;;;488596;243;28715;-72
2022/05/26 07:07:51;;;;;;;1.63;1.53;;;15.30;99.90;;;;;;488597;243;28687;-72
2022/05/26 07:09:52;;;;;;;1.50;1.40;;;15.30;99.90;;;;;;488607;243;28791;-73
2022/05/26 07:11:53;;;;;;;1.70;1.60;;;15.40;99.90;;;;;;488583;243;28692;-72
2022/05/26 07:13:54;;;;;;;1.40;1.40;;;15.50;99.90;;;;;;488576;243;29281;-72
2022/05/26 07:15:56;;;;;;;1.17;1.17;;;15.50;99.90;;;;;;488604;243;29388;-75
2022/05/26 07:17:57;;;;;;;1.40;1.30;;;15.50;99.90;;;;;;488592;243;29192;-72
2022/05/26 07:19:58;;;;;;;1.37;1.27;;;15.50;99.90;;;;;;488607;243;29199;-73
2022/05/26 07:21:59;;;;;;;1.90;1.70;;;15.40;99.90;;;;;;488618;243;28666;-72
2022/05/26 07:24:01;;;;;;;3.10;1.60;;;15.50;99.90;;;;;;488605;243;28724;-72
2022/05/26 07:26:02;;;;;;;1.30;1.30;;;15.70;99.90;;;;;;488624;243;28734;-72
2022/05/26 07:28:03;;;;;;;1.37;1.20;;;15.80;99.90;;;;;;488624;243;28748;-72
2022/05/26 07:30:04;;;;;;;1.53;1.43;;;15.90;99.90;;;;;;488621;243;28706;-73
2022/05/26 07:32:06;;;;;;;1.37;1.30;;;16.00;99.90;;;;;;488626;243;28674;-72
2022/05/26 07:34:07;;;;;;;2.07;1.37;;;15.90;99.90;;;;;;488601;243;28711;-72
2022/05/26 07:41:16;;;;;;;1.10;1.10;;;15.80;99.90;;;;;;488601;243;28688;-72
2022/05/26 07:42:36;;;;;;;2.20;1.60;;;15.80;99.90;;;;;;485096;243;29243;-72
2022/05/26 07:44:37;;;;;;;1.60;1.50;;;15.80;99.90;;;;;;488641;243;29195;-72
2022/05/26 07:46:39;;;;;;;1.63;1.53;;;15.80;99.90;;;;;;488622;243;29533;-72
2022/05/26 07:48:40;;;;;;;1.90;1.70;;;15.60;99.90;;;;;;488570;243;28702;-72
2022/05/26 07:50:41;;;;;;;1.60;1.50;;;15.70;99.90;;;;;;488606;243;28748;-74
2022/05/26 07:52:42;;;;;;;2.17;1.60;;;15.80;99.90;;;;;;488607;243;28675;-72
2022/05/26 07:54:43;;;;;;;1.50;1.40;;;15.90;99.90;;;;;;488592;243;28716;-73
2022/05/26 07:56:45;;;;;;;1.50;1.40;;;16.00;99.90;;;;;;488598;243;28765;-72
2022/05/26 07:58:47;;;;;;;1.30;1.30;;;16.00;99.90;;;;;;488570;243;28807;-72
2022/05/26 08:00:48;;;;;;;1.50;1.40;;;15.90;99.90;;;;;;488534;243;28779;-73
2022/05/26 08:02:49;;;;;;;1.60;1.50;;;16.00;99.90;;;;;;488605;243;28674;-72
2022/05/26 08:04:50;;;;;;;1.30;1.20;;;16.00;99.90;;;;;;488615;243;29178;-72
2022/05/26 08:06:51;;;;;;;1.60;1.50;;;16.10;99.90;;;;;;488609;243;29268;-72
2022/05/26 08:08:52;;;;;;;1.80;1.70;;;16.00;99.90;;;;;;488614;243;29175;-72
2022/05/26 08:10:53;;;;;;;5.70;2.00;;;15.90;99.90;;;;;;488621;243;29204;-74
2022/05/26 08:12:55;;;;;;;1.73;1.63;;;15.80;99.90;;;;;;488641;243;28770;-72
2022/05/26 08:14:56;;;;;;;1.80;1.70;;;15.80;99.90;;;;;;488635;243;28783;-73
2022/05/26 08:16:57;;;;;;;1.80;1.70;;;15.80;99.90;;;;;;488626;243;28786;-72
2022/05/26 08:18:58;;;;;;;1.90;1.63;;;15.70;99.90;;;;;;488611;243;28697;-72
2022/05/26 08:21:00;;;;;;;1.67;1.57;;;15.80;99.90;;;;;;488655;243;28763;-74
2022/05/26 08:23:01;;;;;;;2.67;1.87;;;15.80;99.90;;;;;;488631;243;28680;-72
2022/05/26 08:25:02;;;;;;;1.80;1.70;;;15.60;99.90;;;;;;488624;243;28708;-72
2022/05/26 08:27:04;;;;;;;2.80;1.70;;;15.70;99.90;;;;;;488605;243;28745;-72
2022/05/26 08:29:05;;;;;;;1.97;1.73;;;15.70;99.90;;;;;;488627;243;29185;-72
2022/05/26 08:31:08;;;;;;;1.77;1.53;;;15.90;99.90;;;;;;488636;243;29281;-74
2022/05/26 08:33:07;;;;;;;1.50;1.50;;;16.00;99.90;;;;;;488500;243;29185;-73
2022/05/26 08:35:09;;;;;;;1.90;1.50;;;16.00;99.90;;;;;;488616;243;29332;-73
2022/05/26 08:37:10;;;;;;;1.50;1.40;;;15.80;99.90;;;;;;488614;243;28675;-72
2022/05/26 08:39:11;;;;;;;4.47;1.37;;;15.80;99.90;;;;;;488599;243;28725;-72
2022/05/26 08:41:12;;;;;;;1.90;1.20;;;15.90;99.90;;;;;;488652;243;28817;-74
2022/05/26 08:43:14;;;;;;;2.03;1.60;;;15.90;99.90;;;;;;488627;241;28785;-72
2022/05/26 08:45:15;;;;;;;4.43;1.67;;;16.10;99.90;;;;;;488617;243;28820;-73
2022/05/26 08:47:16;;;;;;;1.40;1.30;;;16.20;99.90;;;;;;488605;243;28682;-72
2022/05/26 08:49:17;;;;;;;1.43;1.43;;;16.30;99.90;;;;;;488599;243;28737;-73
2022/05/26 08:51:19;;;;;;;1.20;1.20;;;16.50;99.90;;;;;;488653;243;28711;-75
2022/05/26 08:53:20;;;;;;;1.70;1.60;;;16.60;99.90;;;;;;488634;243;28769;-72
2022/05/26 08:55:21;;;;;;;1.93;1.57;;;16.40;99.90;;;;;;488645;243;29303;-73
2022/05/26 08:57:23;;;;;;;1.77;1.60;;;16.20;99.90;;;;;;488640;243;29127;-72
2022/05/26 08:59:24;;;;;;;1.70;1.60;;;16.20;99.90;;;;;;488634;243;29157;-73
2022/05/26 09:01:28;;;;;;;1.70;1.60;;;16.20;99.90;;;;;;488650;243;28704;-74
2022/05/26 09:03:26;;;;;;;1.50;1.40;;;16.30;99.90;;;;;;488456;243;28677;-72
2022/05/26 09:05:27;;;;;;;1.70;1.60;;;16.40;99.90;;;;;;488665;243;28794;-73
2022/05/26 09:14:27;;;;;;;1.73;1.60;;;16.40;99.90;;;;;;488638;243;29248;-75
2022/05/26 09:16:29;;;;;;;2.60;1.53;;;16.50;99.90;;;;;;488649;243;28672;-72
2022/05/26 09:18:29;;;;;;;1.87;1.77;;;16.60;99.90;;;;;;488601;243;28716;-73
2022/05/26 09:20:31;;;;;;;1.70;1.40;;;16.40;99.90;;;;;;488631;243;28688;-73
2022/05/26 09:22:32;;;;;;;1.63;1.40;;;16.10;99.90;;;;;;488606;243;28706;-72
2022/05/26 09:24:33;;;;;;;1.50;1.40;;;16.00;99.90;;;;;;488613;243;28716;-72
2022/05/26 09:26:34;;;;;;;1.80;1.50;;;16.10;99.90;;;;;;488634;243;28705;-72
2022/05/26 09:28:36;;;;;;;2.50;2.20;;;16.30;99.90;;;;;;488628;243;28774;-72
2022/05/26 09:30:37;;;;;;;1.67;1.57;;;16.30;99.90;;;;;;488620;243;28731;-72
2022/05/26 09:32:38;;;;;;;2.50;1.70;;;16.50;99.90;;;;;;488589;243;29245;-72
2022/05/26 09:34:39;;;;;;;1.93;1.60;;;16.50;99.90;;;;;;488634;243;29437;-72
2022/05/26 09:36:41;;;;;;;1.50;1.40;;;16.70;99.90;;;;;;488644;243;29233;-73
2022/05/26 09:38:43;;;;;;;1.70;1.60;;;17.00;99.90;;;;;;488622;243;29283;-73
2022/05/26 09:40:48;;;;;;;2.30;1.60;;;17.10;99.90;;;;;;488624;243;28693;-72
2022/05/26 09:42:44;;;;;;;1.50;1.40;;;17.20;99.90;;;;;;488346;243;28724;-72
2022/05/26 09:44:46;;;;;;;2.17;1.30;;;17.00;99.90;;;;;;488614;243;28710;-72
2022/05/26 09:46:47;;;;;;;2.03;1.50;;;16.80;99.90;;;;;;488624;243;28797;-72
2022/05/26 09:48:48;;;;;;;1.50;1.40;;;16.40;99.90;;;;;;488620;243;28718;-72
2022/05/26 09:50:49;;;;;;;1.70;1.60;;;16.20;99.90;;;;;;488610;243;28673;-72
2022/05/26 09:52:51;;;;;;;1.53;1.43;;;16.20;99.90;;;;;;488612;243;28728;-73
2022/05/26 09:54:52;;;;;;;1.80;1.50;;;16.30;99.90;;;;;;488625;243;28692;-72
2022/05/26 09:56:53;;;;;;;1.50;1.40;;;16.10;99.90;;;;;;488634;243;28779;-72
2022/05/26 09:58:54;;;;;;;1.57;1.30;;;16.00;99.90;;;;;;488630;243;29193;-73
2022/05/26 10:00:56;;;;;;;1.60;1.50;;;16.00;99.90;;;;;;488602;243;29145;-72
2022/05/26 10:02:57;;;;;;;1.40;1.30;;;15.90;99.90;;;;;;488599;243;29199;-72
2022/05/26 10:04:58;;;;;;;1.40;1.30;;;16.10;99.90;;;;;;488639;243;28723;-72
2022/05/26 10:06:59;;;;;;;1.30;1.30;;;16.10;99.90;;;;;;488647;243;28671;-72
2022/05/26 10:09:01;;;;;;;1.10;1.10;;;16.00;99.90;;;;;;488627;243;28733;-72
2022/05/26 10:11:02;;;;;;;1.43;1.33;;;16.00;99.90;;;;;;488612;243;28745;-72
2022/05/26 10:13:03;;;;;;;1.33;1.33;;;15.90;99.90;;;;;;488608;243;28772;-72
2022/05/26 10:15:04;;;;;;;1.33;1.20;;;15.80;99.90;;;;;;488628;243;29126;-74
2022/05/26 10:17:06;;;;;;;1.87;1.30;;;15.80;99.90;;;;;;488592;243;28759;-72
2022/05/26 10:19:07;;;;;;;1.77;1.40;;;16.00;99.90;;;;;;488583;243;28798;-72
2022/05/26 10:21:08;;;;;;;2.40;1.40;;;16.00;99.90;;;;;;488536;243;28672;-72
2022/05/26 10:23:09;;;;;;;1.40;1.27;;;15.90;99.90;;;;;;488520;243;29282;-72
2022/05/26 10:25:11;;;;;;;1.63;1.27;;;16.00;99.90;;;;;;488606;243;29351;-75
2022/05/26 10:27:12;;;;;;;2.00;1.50;;;15.90;99.90;;;;;;488588;243;29141;-72
2022/05/26 10:29:16;;;;;;;1.67;1.40;;;16.00;99.90;;;;;;488626;243;28812;-73
2022/05/26 10:31:14;;;;;;;1.43;1.17;;;16.10;99.90;;;;;;488482;243;28674;-72
2022/05/26 10:33:16;;;;;;;2.30;1.50;;;16.00;99.90;;;;;;488622;243;28728;-72
2022/05/26 10:35:19;;;;;;;1.90;1.53;;;16.10;99.90;;;;;;488613;243;28711;-72
2022/05/26 10:37:18;;;;;;;1.40;1.30;;;16.40;99.90;;;;;;488548;243;28679;-72
2022/05/26 10:39:20;;;;;;;1.30;1.20;;;16.80;99.90;;;;;;488627;243;28796;-72
2022/05/26 10:41:21;;;;;;;1.83;1.40;;;16.80;99.90;;;;;;488638;243;28674;-72
2022/05/26 10:43:23;;;;;;;1.27;1.20;;;16.80;99.90;;;;;;488616;241;28735;-72
2022/05/26 10:45:23;;;;;;;1.23;1.23;;;16.80;99.90;;;;;;488590;243;28801;-72
2022/05/26 10:47:25;;;;;;;1.50;1.40;;;17.00;99.90;;;;;;488632;243;29138;-73
2022/05/26 10:49:26;;;;;;;1.80;1.60;;;17.20;99.90;;;;;;488629;243;29222;-74
2022/05/26 10:51:27;;;;;;;1.30;1.20;;;17.00;99.90;;;;;;488610;243;29234;-72
2022/05/26 10:53:28;;;;;;;1.93;1.50;;;16.80;99.90;;;;;;488608;243;29242;-73
2022/05/26 10:55:30;;;;;;;1.40;1.30;;;16.80;99.90;;;;;;488637;243;28691;-72
2022/05/26 10:57:31;;;;;;;1.83;1.50;;;16.80;99.90;;;;;;488621;243;28742;-72
2022/05/26 10:59:32;;;;;;;3.23;2.00;;;16.70;99.90;;;;;;488618;243;28727;-74